Time;durP1;ratioP1;P1;durP2;ratioP2;P2;SDS_P1;SDS_P2;PMS_P1;PMS_P2;Temp;Humidity;BMP_temperature;BMP_pressure;BME280_temperature;BME280_humidity;BME280_pressure;Samples;Min_cycle;Max_cycle;Signal;HPM_P1;HPM_P2
2023/11/22 00:00:36;;;;;;;4.95;3.05;;;;;;;13.71;55.07;98167.47;4969797;28;20031;-73
2023/11/22 00:03:02;;;;;;;4.45;2.83;;;;;;;13.73;55.17;98160.28;4953918;29;20407;-73
2023/11/22 00:05:27;;;;;;;3.90;3.00;;;;;;;13.73;55.21;98162.91;4969600;28;20031;-73
2023/11/22 00:07:53;;;;;;;4.40;2.80;;;;;;;13.72;55.03;98163.88;4953833;29;20043;-74
2023/11/22 00:10:18;;;;;;;5.00;3.00;;;;;;;13.71;55.36;98170.09;4954910;29;20042;-74
2023/11/22 00:12:44;;;;;;;5.03;3.13;;;;;;;13.70;55.13;98160.59;4953829;29;20031;-74
2023/11/22 00:15:11;;;;;;;4.20;3.00;;;;;;;13.65;55.25;98158.44;4953585;28;20439;-74
2023/11/22 00:17:37;;;;;;;4.03;2.92;;;;;;;13.68;55.08;98165.19;4969442;28;20031;-73
2023/11/22 00:20:05;;;;;;;4.53;2.85;;;;;;;13.66;55.08;98177.59;4969795;28;20035;-73
2023/11/22 00:22:33;;;;;;;3.83;2.95;;;;;;;13.64;55.10;98164.63;4953299;29;20048;-73
2023/11/22 00:25:01;;;;;;;4.85;2.92;;;;;;;13.60;55.33;98173.78;4953572;28;20043;-73
2023/11/22 00:27:27;;;;;;;3.63;2.60;;;;;;;13.59;55.21;98160.84;4953816;28;20055;-73
2023/11/22 00:29:53;;;;;;;4.00;2.80;;;;;;;13.62;55.10;98174.47;4953370;29;20038;-73
2023/11/22 00:32:19;;;;;;;4.03;2.97;;;;;;;13.56;55.16;98160.13;4953748;29;20027;-74
2023/11/22 00:34:44;;;;;;;4.18;2.85;;;;;;;13.54;55.42;98172.59;4969392;28;20039;-73
2023/11/22 00:37:10;;;;;;;4.38;3.10;;;;;;;13.54;55.29;98162.09;4937227;29;20031;-73
2023/11/22 00:39:36;;;;;;;4.00;2.72;;;;;;;13.57;55.37;98164.41;4937313;29;20027;-74
2023/11/22 00:42:03;;;;;;;5.10;2.95;;;;;;;13.52;55.26;98161.44;4953210;29;20035;-75
2023/11/22 00:44:29;;;;;;;5.10;2.92;;;;;;;13.57;55.21;98171.47;4968651;28;20483;-74
2023/11/22 00:46:57;;;;;;;4.25;2.80;;;;;;;13.52;55.33;98163.22;4952950;28;20086;-74
2023/11/22 00:49:22;;;;;;;3.95;2.70;;;;;;;13.52;55.18;98157.97;4969129;28;20110;-74
2023/11/22 00:51:48;;;;;;;5.60;3.03;;;;;;;13.54;55.28;98156.84;4953274;29;20034;-74
2023/11/22 00:54:15;;;;;;;4.35;3.10;;;;;;;13.51;55.21;98143.22;4969438;28;20035;-74
2023/11/22 00:56:40;;;;;;;4.82;2.97;;;;;;;13.52;55.52;98136.97;4952938;29;20074;-75
2023/11/22 00:59:06;;;;;;;3.53;2.65;;;;;;;13.50;55.57;98146.81;4954715;29;20069;-75
2023/11/22 01:01:31;;;;;;;3.88;2.70;;;;;;;13.50;55.43;98152.88;4954247;29;20132;-74
2023/11/22 01:03:57;;;;;;;4.05;3.15;;;;;;;13.50;55.35;98146.81;4952896;29;20039;-74
2023/11/22 01:06:23;;;;;;;5.25;2.80;;;;;;;13.52;55.29;98150.09;4937384;29;20031;-74
2023/11/22 01:08:49;;;;;;;4.80;2.70;;;;;;;13.47;55.34;98137.47;4954383;29;20114;-74
2023/11/22 01:11:14;;;;;;;5.97;3.05;;;;;;;13.46;55.55;98146.28;4952928;28;20130;-74
2023/11/22 01:13:42;;;;;;;4.85;2.95;;;;;;;13.45;55.43;98155.13;4953176;28;20039;-74
2023/11/22 01:16:07;;;;;;;6.13;3.00;;;;;;;13.48;55.37;98162.69;4937794;29;20035;-75
2023/11/22 01:18:33;;;;;;;5.30;3.03;;;;;;;13.44;55.44;98142.16;4953127;28;20038;-74
2023/11/22 01:20:59;;;;;;;3.80;2.88;;;;;;;13.46;55.39;98162.03;4952847;28;20046;-74
2023/11/22 01:23:25;;;;;;;6.05;2.90;;;;;;;13.45;55.42;98156.94;4952624;28;20043;-74
2023/11/22 01:25:50;;;;;;;3.75;2.67;;;;;;;13.40;55.44;98144.25;4952695;29;20039;-74
2023/11/22 01:28:17;;;;;;;3.58;2.70;;;;;;;13.43;55.67;98133.47;4953605;28;20054;-74
2023/11/22 01:30:45;;;;;;;4.43;2.70;;;;;;;13.37;55.71;98127.03;4968904;28;20038;-74
2023/11/22 01:33:11;;;;;;;4.25;2.83;;;;;;;13.42;55.57;98134.44;4952651;29;20463;-74
2023/11/22 01:35:38;;;;;;;4.78;3.05;;;;;;;13.42;55.62;98136.25;4953634;29;20566;-74
2023/11/22 01:38:04;;;;;;;4.03;2.83;;;;;;;13.39;55.85;98132.13;4936776;29;20035;-74
2023/11/22 01:40:30;;;;;;;3.85;2.80;;;;;;;13.35;55.48;98115.88;4952704;29;20554;-74
2023/11/22 01:42:56;;;;;;;4.88;2.90;;;;;;;13.38;55.79;98122.63;4952781;29;20077;-75
2023/11/22 01:45:22;;;;;;;5.55;2.97;;;;;;;13.36;55.81;98130.66;4953963;29;20483;-73
2023/11/22 01:47:47;;;;;;;4.10;2.88;;;;;;;13.37;55.66;98124.41;4952646;29;20035;-75
2023/11/22 01:50:14;;;;;;;4.53;2.67;;;;;;;13.37;55.62;98137.50;4952709;29;20047;-74
2023/11/22 01:52:40;;;;;;;3.63;2.30;;;;;;;13.34;55.83;98124.69;4968294;28;20043;-75
2023/11/22 01:55:06;;;;;;;4.32;2.85;;;;;;;13.35;55.70;98126.38;4952456;29;20039;-74
2023/11/22 01:57:35;;;;;;;4.25;2.90;;;;;;;13.31;55.80;98124.97;4955130;28;20042;-74
2023/11/22 02:00:04;;;;;;;5.35;3.17;;;;;;;13.31;55.47;98124.16;4956142;29;20027;-75
2023/11/22 02:02:30;;;;;;;4.70;2.63;;;;;;;13.27;55.88;98117.59;4955866;28;20038;-75
2023/11/22 02:04:56;;;;;;;4.28;2.85;;;;;;;13.30;55.96;98112.00;4972010;28;20500;-75
2023/11/22 02:07:21;;;;;;;5.28;2.78;;;;;;;13.28;55.65;98106.09;4957190;28;20104;-74
2023/11/22 02:09:47;;;;;;;5.28;3.03;;;;;;;13.27;55.73;98114.97;4939894;29;20094;-73
2023/11/22 02:12:12;;;;;;;4.68;2.80;;;;;;;13.20;55.83;98122.56;4956472;28;20031;-73
2023/11/22 02:14:38;;;;;;;3.78;2.50;;;;;;;13.20;55.53;98115.56;4971742;28;20035;-73
2023/11/22 02:17:03;;;;;;;5.43;3.00;;;;;;;13.23;55.95;98118.84;4957086;29;20376;-73
2023/11/22 02:19:30;;;;;;;5.10;2.75;;;;;;;13.17;55.90;98121.09;4957145;29;20586;-74
2023/11/22 02:21:55;;;;;;;5.18;2.80;;;;;;;13.15;55.85;98124.81;4955573;29;20054;-74
2023/11/22 02:24:21;;;;;;;3.55;2.35;;;;;;;13.14;55.86;98121.38;4955652;29;20027;-74
2023/11/22 02:26:47;;;;;;;3.42;2.40;;;;;;;13.18;56.07;98129.78;4940060;29;20471;-72
2023/11/22 02:29:12;;;;;;;3.47;2.35;;;;;;;13.16;56.00;98131.72;4955605;29;20034;-72
2023/11/22 02:31:40;;;;;;;4.80;2.70;;;;;;;13.15;55.97;98138.75;4955572;29;20093;-74
2023/11/22 02:34:06;;;;;;;3.80;2.80;;;;;;;13.15;56.21;98136.13;4955873;29;20054;-72
2023/11/22 02:36:32;;;;;;;4.80;2.58;;;;;;;13.15;55.86;98132.69;4956384;29;20086;-73
2023/11/22 02:38:57;;;;;;;5.20;2.70;;;;;;;13.15;56.10;98128.25;4955307;29;20043;-73
2023/11/22 02:41:25;;;;;;;5.78;2.47;;;;;;;13.12;56.25;98112.00;4955673;28;20101;-73
2023/11/22 02:43:50;;;;;;;3.92;2.58;;;;;;;13.10;55.97;98103.50;4955399;28;20046;-73
2023/11/22 02:46:16;;;;;;;3.47;2.55;;;;;;;13.13;56.28;98103.19;4971358;28;20043;-73
2023/11/22 02:48:41;;;;;;;4.47;2.60;;;;;;;13.11;56.16;98103.34;4971280;28;20051;-74
2023/11/22 02:51:07;;;;;;;5.68;2.58;;;;;;;13.11;56.39;98099.88;4955503;28;20042;-74
2023/11/22 02:53:32;;;;;;;5.50;2.78;;;;;;;13.09;55.91;98094.78;4955102;28;20024;-74
2023/11/22 02:56:01;;;;;;;4.15;2.80;;;;;;;13.06;56.12;98086.41;4939152;29;20031;-74
2023/11/22 02:58:27;;;;;;;;;;;;;;;13.08;56.14;98085.28;4955335;28;20042;-75
2023/11/22 03:00:54;;;;;;;4.35;2.60;;;;;;;13.06;56.11;98089.03;4971145;28;19952;-75
2023/11/22 03:03:20;;;;;;;4.00;2.80;;;;;;;13.01;55.91;98089.47;4938926;29;20142;-73
2023/11/22 03:05:45;;;;;;;3.35;2.33;;;;;;;13.02;56.36;98094.56;4955001;28;20114;-73
2023/11/22 03:08:12;;;;;;;4.25;2.67;;;;;;;13.00;56.10;98106.19;4954282;28;20058;-74
2023/11/22 03:10:38;;;;;;;3.38;2.25;;;;;;;12.98;56.40;98111.56;4954920;29;20070;-74
2023/11/22 03:13:04;;;;;;;4.63;2.55;;;;;;;13.02;56.16;98094.56;4970891;28;20075;-74
2023/11/22 03:15:29;;;;;;;3.55;2.70;;;;;;;13.02;56.56;98099.00;4971064;28;20038;-73
2023/11/22 03:17:55;;;;;;;4.28;2.50;;;;;;;13.02;56.16;98091.13;4970689;28;20035;-74
2023/11/22 03:20:21;;;;;;;3.72;2.33;;;;;;;13.02;56.53;98093.75;4955202;28;20047;-74
2023/11/22 03:22:50;;;;;;;3.20;2.33;;;;;;;13.02;56.15;98096.38;4954242;29;20109;-74
2023/11/22 03:25:15;;;;;;;4.35;2.75;;;;;;;13.02;56.28;98093.75;4955806;29;20031;-73
2023/11/22 03:27:41;;;;;;;3.28;2.50;;;;;;;12.97;56.25;98069.78;4954524;29;20506;-73
2023/11/22 03:30:10;;;;;;;3.67;2.53;;;;;;;13.02;56.54;98075.41;4971005;28;20034;-73
2023/11/22 03:32:39;;;;;;;3.60;2.50;;;;;;;13.02;56.25;98078.03;4954805;28;20098;-73
2023/11/22 03:35:08;;;;;;;3.30;2.35;;;;;;;12.98;56.39;98072.28;4938309;29;20027;-75
2023/11/22 03:37:34;;;;;;;3.95;2.20;;;;;;;13.01;56.50;98082.44;4970202;28;20038;-74
2023/11/22 03:39:59;;;;;;;6.03;2.50;;;;;;;13.00;56.07;98098.31;4970261;28;20035;-74
2023/11/22 03:42:26;;;;;;;4.30;2.50;;;;;;;13.02;56.30;98122.56;4938128;29;20070;-74
2023/11/22 03:44:53;;;;;;;3.55;2.40;;;;;;;13.06;56.46;98121.28;4954370;28;20027;-73
2023/11/22 03:47:18;;;;;;;3.95;2.60;;;;;;;13.04;56.24;98112.75;4953963;28;20045;-73
2023/11/22 03:49:44;;;;;;;3.80;2.40;;;;;;;13.03;56.20;98129.47;4954176;28;20499;-73
2023/11/22 03:52:14;;;;;;;4.38;2.38;;;;;;;13.02;56.39;98109.47;4970371;28;20042;-74
2023/11/22 03:54:39;;;;;;;3.63;2.50;;;;;;;13.07;56.27;98122.13;4954098;29;20032;-75
2023/11/22 03:57:05;;;;;;;5.70;2.60;;;;;;;13.08;56.15;98108.88;4954135;29;20098;-74
2023/11/22 03:59:30;;;;;;;4.20;2.53;;;;;;;13.04;56.17;98097.03;4969995;28;20023;-73
2023/11/22 04:01:56;;;;;;;3.75;2.28;;;;;;;13.08;56.33;98119.34;4954946;29;20040;-74
2023/11/22 04:04:22;;;;;;;4.15;2.40;;;;;;;13.05;56.55;98113.59;4953799;29;20536;-74
2023/11/22 04:06:48;;;;;;;3.33;2.53;;;;;;;13.09;56.29;98141.94;4953919;28;20163;-75
2023/11/22 04:09:16;;;;;;;3.63;2.45;;;;;;;13.05;56.17;98138.00;4969707;28;20062;-74
2023/11/22 04:11:42;;;;;;;;;;;;;;;13.10;56.15;98141.00;4954727;29;20039;-74
2023/11/22 04:14:07;;;;;;;4.60;2.65;;;;;;;13.08;56.41;98145.56;4953886;28;19917;-74
2023/11/22 04:16:33;;;;;;;3.08;2.40;;;;;;;13.08;56.36;98134.22;4953587;29;20043;-73
2023/11/22 04:18:58;;;;;;;3.35;2.50;;;;;;;13.09;56.10;98139.31;4962345;28;20117;-74
2023/11/22 04:21:24;;;;;;;3.55;2.30;;;;;;;13.09;56.49;98139.31;4972635;28;20031;-75
2023/11/22 04:23:49;;;;;;;3.85;2.58;;;;;;;13.10;56.28;98137.56;4973268;28;20410;-74
2023/11/22 04:26:15;;;;;;;3.08;2.35;;;;;;;13.06;56.22;98147.47;4988712;28;20481;-74
2023/11/22 04:28:41;;;;;;;3.88;2.50;;;;;;;13.12;56.09;98143.47;4989135;28;20045;-75
2023/11/22 04:31:08;;;;;;;3.42;2.28;;;;;;;13.12;56.15;98157.38;4955832;28;20046;-74
2023/11/22 04:33:34;;;;;;;4.85;2.65;;;;;;;13.14;56.18;98147.59;4973067;28;20064;-74
2023/11/22 04:36:00;;;;;;;3.72;2.38;;;;;;;13.10;56.15;98161.13;4956608;28;20055;-74
2023/11/22 04:38:25;;;;;;;3.80;2.72;;;;;;;13.14;55.94;98181.66;4972401;28;20030;-73
2023/11/22 04:40:51;;;;;;;3.58;2.40;;;;;;;13.15;56.27;98177.22;4989105;28;20057;-72
2023/11/22 04:43:16;;;;;;;3.80;2.35;;;;;;;13.16;55.96;98181.50;4988495;28;20027;-73
2023/11/22 04:45:43;;;;;;;4.38;2.50;;;;;;;13.18;56.05;98192.66;4973894;28;20042;-76
2023/11/22 04:48:08;;;;;;;3.63;2.33;;;;;;;13.16;56.52;98203.28;4988308;28;20160;-72
2023/11/22 04:50:33;;;;;;;3.10;2.42;;;;;;;13.16;56.43;98195.44;4972100;28;20039;-73
2023/11/22 04:53:01;;;;;;;3.28;2.30;;;;;;;13.18;56.09;98205.78;4973473;28;20042;-71
2023/11/22 04:55:27;;;;;;;3.90;2.50;;;;;;;13.16;56.06;98199.84;4972227;28;20030;-73
2023/11/22 04:57:53;;;;;;;3.35;2.25;;;;;;;13.19;57.12;98210.88;4972250;28;20110;-72
2023/11/22 05:00:19;;;;;;;6.07;2.47;;;;;;;13.33;60.75;98201.72;4987688;28;20563;-76
2023/11/22 05:02:48;;;;;;;5.20;2.47;;;;;;;13.34;58.97;98205.97;4955820;28;20589;-73
2023/11/22 05:05:13;;;;;;;6.32;2.28;;;;;;;13.32;59.19;98193.97;4972653;28;20055;-72
2023/11/22 05:07:39;;;;;;;3.45;2.20;;;;;;;13.34;58.65;98194.66;4972328;28;20038;-71
2023/11/22 05:10:05;;;;;;;7.47;2.35;;;;;;;13.40;61.67;98196.69;4972062;28;20126;-74
2023/11/22 05:12:31;;;;;;;5.15;2.55;;;;;;;13.39;59.78;98200.28;4952259;28;20027;-74
2023/11/22 05:14:56;;;;;;;4.10;2.40;;;;;;;13.41;59.57;98192.28;4952557;29;20046;-72
2023/11/22 05:17:22;;;;;;;10.43;2.67;;;;;;;13.38;59.32;98194.22;4952185;29;20050;-71
2023/11/22 05:19:47;;;;;;;4.95;2.22;;;;;;;13.39;59.40;98201.13;4952738;29;20122;-72
2023/11/22 05:22:13;;;;;;;4.18;2.75;;;;;;;13.39;59.26;98208.16;4952023;29;20129;-73
2023/11/22 05:24:41;;;;;;;10.55;2.60;;;;;;;13.33;59.27;98195.63;4952532;29;20031;-71
2023/11/22 05:27:09;;;;;;;3.00;2.20;;;;;;;13.38;59.11;98196.03;4968598;28;20125;-74
2023/11/22 05:29:35;;;;;;;4.63;2.38;;;;;;;13.36;59.06;98192.72;4936543;29;20035;-74
2023/11/22 05:32:01;;;;;;;4.07;2.45;;;;;;;13.32;59.07;98192.16;4954542;28;20475;-73
2023/11/22 05:34:27;;;;;;;5.72;2.42;;;;;;;13.36;58.63;98211.91;4956864;29;20102;-73
2023/11/22 05:36:53;;;;;;;6.55;2.67;;;;;;;13.37;58.85;98217.97;4972655;28;20475;-72
2023/11/22 05:39:18;;;;;;;4.18;2.78;;;;;;;13.35;58.72;98214.69;4956240;29;20035;-73
2023/11/22 05:41:44;;;;;;;3.35;2.22;;;;;;;13.36;58.66;98225.00;4956327;29;20063;-73
2023/11/22 05:44:10;;;;;;;3.28;2.15;;;;;;;13.34;58.65;98226.94;4956320;29;20490;-72
2023/11/22 05:46:36;;;;;;;3.72;2.63;;;;;;;13.39;58.34;98224.72;4956280;29;20046;-73
2023/11/22 05:49:01;;;;;;;5.72;2.70;;;;;;;13.41;58.26;98221.97;4956193;29;20042;-74
2023/11/22 05:51:27;;;;;;;8.88;2.55;;;;;;;13.42;58.23;98218.34;4957111;29;20464;-73
2023/11/22 05:53:52;;;;;;;4.78;2.58;;;;;;;13.43;58.09;98216.56;4940012;29;20054;-72
2023/11/22 05:56:18;;;;;;;4.97;2.15;;;;;;;13.44;58.15;98223.44;4957271;29;20454;-73
2023/11/22 05:58:44;;;;;;;5.10;2.70;;;;;;;13.44;58.17;98212.94;4972054;28;20027;-72
2023/11/22 06:01:11;;;;;;;3.67;2.22;;;;;;;13.42;57.95;98207.84;4955630;29;20121;-74
2023/11/22 06:03:38;;;;;;;4.68;2.88;;;;;;;13.48;57.93;98225.63;4940624;28;20062;-73
2023/11/22 06:06:04;;;;;;;3.33;2.42;;;;;;;13.50;57.75;98225.47;4956209;29;20027;-72
2023/11/22 06:08:30;;;;;;;3.33;2.15;;;;;;;13.52;57.94;98237.47;4955683;29;20031;-73
2023/11/22 06:10:57;;;;;;;4.63;2.40;;;;;;;13.49;57.83;98236.91;4955801;29;20042;-74
2023/11/22 06:13:23;;;;;;;4.53;2.20;;;;;;;13.55;57.63;98238.94;4955715;29;20418;-74
2023/11/22 06:15:49;;;;;;;6.10;2.55;;;;;;;13.55;57.49;98233.72;4939699;29;20031;-74
2023/11/22 06:18:15;;;;;;;5.35;2.30;;;;;;;13.63;57.33;98246.09;4940180;28;20043;-74
2023/11/22 06:20:41;;;;;;;3.10;2.10;;;;;;;13.65;57.35;98263.34;4955920;29;20073;-73
2023/11/22 06:23:06;;;;;;;3.20;2.22;;;;;;;13.63;57.12;98264.44;4955386;29;20048;-73
2023/11/22 06:25:32;;;;;;;5.03;2.63;;;;;;;13.71;57.13;98272.38;4955537;29;20471;-73
2023/11/22 06:27:57;;;;;;;5.25;2.47;;;;;;;13.73;57.29;98275.72;4956687;29;20062;-73
2023/11/22 06:30:24;;;;;;;5.32;2.30;;;;;;;13.75;57.08;98277.19;4955677;28;20046;-72
2023/11/22 06:32:53;;;;;;;4.57;2.53;;;;;;;13.73;56.83;98271.28;4955491;29;20035;-72
2023/11/22 06:35:19;;;;;;;5.28;2.60;;;;;;;13.78;56.72;98268.22;4955411;29;20476;-74
2023/11/22 06:37:44;;;;;;;3.30;2.30;;;;;;;13.79;56.84;98269.03;4939348;29;20120;-72
2023/11/22 06:40:14;;;;;;;4.10;2.50;;;;;;;13.89;56.69;98280.28;4955273;29;20396;-74
2023/11/22 06:42:40;;;;;;;4.05;2.50;;;;;;;13.89;56.58;98273.22;4954028;28;20085;-72
2023/11/22 06:45:09;;;;;;;3.72;2.60;;;;;;;13.97;56.63;98276.91;4939611;28;20047;-73
2023/11/22 06:47:36;;;;;;;4.70;2.60;;;;;;;13.93;56.59;98271.97;4955138;29;20042;-73
2023/11/22 06:50:02;;;;;;;4.22;2.58;;;;;;;14.02;56.33;98274.66;4955186;29;20411;-72
2023/11/22 06:52:27;;;;;;;4.30;2.88;;;;;;;14.06;56.34;98289.97;4955039;29;20114;-74
2023/11/22 06:54:53;;;;;;;4.28;2.67;;;;;;;14.08;56.37;98281.94;4954951;29;20102;-73
2023/11/22 06:57:18;;;;;;;4.88;2.78;;;;;;;14.10;56.13;98283.44;4971260;28;20035;-73
2023/11/22 06:59:44;;;;;;;6.07;2.88;;;;;;;14.20;56.20;98300.91;4955134;28;20035;-73
2023/11/22 07:02:09;;;;;;;4.63;2.67;;;;;;;14.25;55.90;98303.91;4955087;29;20043;-72
2023/11/22 07:04:35;;;;;;;3.33;2.50;;;;;;;14.29;55.94;98308.72;4955290;29;20078;-73
2023/11/22 07:07:02;;;;;;;4.18;2.72;;;;;;;14.33;55.79;98317.09;4955121;29;20043;-74
2023/11/22 07:09:27;;;;;;;5.65;2.67;;;;;;;14.37;55.55;98317.63;4955870;29;20510;-73
2023/11/22 07:11:53;;;;;;;5.28;2.88;;;;;;;14.35;55.68;98312.53;4954836;28;20048;-73
2023/11/22 07:14:19;;;;;;;4.65;2.47;;;;;;;14.42;55.65;98323.22;4939347;28;20202;-72
2023/11/22 07:16:45;;;;;;;6.68;2.60;;;;;;;14.43;55.53;98324.91;4971167;28;20475;-73
2023/11/22 07:19:12;;;;;;;6.35;2.92;;;;;;;14.45;55.48;98322.94;4970439;28;20129;-73
2023/11/22 07:21:38;;;;;;;4.32;2.88;;;;;;;14.41;55.51;98311.91;4954668;29;20056;-73
2023/11/22 07:24:06;;;;;;;6.07;2.70;;;;;;;14.41;55.43;98321.59;4954623;29;20451;-73
2023/11/22 07:26:33;;;;;;;5.05;2.80;;;;;;;14.46;55.47;98340.34;4954648;29;20085;-73
2023/11/22 07:28:58;;;;;;;4.80;2.88;;;;;;;14.47;55.42;98340.19;4938602;29;20040;-73
2023/11/22 07:31:24;;;;;;;4.80;2.92;;;;;;;14.43;55.59;98330.97;4954598;29;20097;-72
2023/11/22 07:33:51;;;;;;;3.53;2.80;;;;;;;14.53;55.34;98340.56;4938941;29;20035;-74
2023/11/22 07:36:17;;;;;;;4.43;2.80;;;;;;;14.55;55.19;98339.44;4954287;29;20086;-73
2023/11/22 07:38:45;;;;;;;4.60;2.90;;;;;;;14.57;55.37;98337.47;4954704;29;20434;-73
2023/11/22 07:41:10;;;;;;;4.10;2.63;;;;;;;14.55;55.42;98330.72;4954189;29;20130;-75
2023/11/22 07:43:36;;;;;;;5.70;2.63;;;;;;;14.47;55.21;98310.50;4954278;29;20039;-75
2023/11/22 07:46:14;;;;;;;4.72;3.20;;;;;;;14.54;55.27;98329.09;4954222;29;20123;-74
2023/11/22 07:48:40;;;;;;;4.55;2.97;;;;;;;14.58;55.28;98347.03;4969420;28;20023;-73
2023/11/22 07:51:07;;;;;;;6.88;3.15;;;;;;;14.55;55.32;98355.19;4938301;29;20213;-73
2023/11/22 07:53:34;;;;;;;4.50;2.95;;;;;;;14.60;55.37;98357.41;4954043;28;20027;-73
2023/11/22 07:56:04;;;;;;;4.68;2.80;;;;;;;14.57;55.40;98357.69;4953863;29;20046;-73
2023/11/22 07:58:34;;;;;;;4.60;3.10;;;;;;;14.61;55.22;98362.50;4970062;28;20027;-73
2023/11/22 08:00:59;;;;;;;5.78;3.08;;;;;;;14.62;55.24;98351.00;4954107;29;20032;-73
2023/11/22 08:03:25;;;;;;;5.35;3.38;;;;;;;14.58;55.30;98339.13;4954009;29;20050;-73
2023/11/22 08:05:53;;;;;;;5.85;3.38;;;;;;;14.63;55.23;98347.41;4938015;29;20125;-76
2023/11/22 08:08:20;;;;;;;5.85;3.40;;;;;;;14.61;55.50;98346.75;4954356;28;20418;-73
2023/11/22 08:10:47;;;;;;;5.07;3.03;;;;;;;14.62;55.23;98340.50;4938390;28;20039;-73
2023/11/22 08:13:13;;;;;;;4.40;2.90;;;;;;;14.60;55.47;98331.94;4953783;29;20131;-74
2023/11/22 08:15:39;;;;;;;5.70;3.30;;;;;;;14.69;55.43;98348.63;4953988;28;20063;-74
2023/11/22 08:18:05;;;;;;;4.97;2.90;;;;;;;14.73;55.20;98357.00;4953730;29;20086;-73
2023/11/22 08:20:31;;;;;;;5.82;3.35;;;;;;;14.70;55.35;98342.38;4953701;28;20047;-73
2023/11/22 08:22:57;;;;;;;6.28;3.13;;;;;;;14.72;55.21;98337.81;4969657;28;20067;-74
2023/11/22 08:25:22;;;;;;;4.70;3.50;;;;;;;14.76;55.07;98331.25;4938197;29;20554;-75
2023/11/22 08:27:48;;;;;;;5.75;3.13;;;;;;;14.82;55.11;98342.97;4954102;29;20403;-73
2023/11/22 08:30:15;;;;;;;6.75;3.50;;;;;;;14.83;55.21;98341.97;4937780;29;20035;-73
2023/11/22 08:32:43;;;;;;;5.05;3.33;;;;;;;14.83;55.10;98355.09;4954029;29;20042;-73
2023/11/22 08:35:10;;;;;;;5.13;3.58;;;;;;;14.86;55.06;98356.59;4953330;29;20066;-73
2023/11/22 08:37:37;;;;;;;5.13;3.25;;;;;;;14.87;54.96;98348.56;4953678;29;20114;-73
2023/11/22 08:40:05;;;;;;;7.00;3.60;;;;;;;14.85;55.16;98350.53;4954239;28;20051;-74
2023/11/22 08:42:30;;;;;;;5.17;3.47;;;;;;;14.86;55.05;98373.19;4953186;29;20317;-74
2023/11/22 08:44:56;;;;;;;4.93;3.30;;;;;;;14.91;55.00;98370.94;4969276;28;20479;-73
2023/11/22 08:47:21;;;;;;;8.35;3.22;;;;;;;14.90;55.13;98371.09;4953402;28;20043;-72
2023/11/22 08:49:48;;;;;;;4.57;3.38;;;;;;;14.91;54.95;98359.59;4953199;29;20027;-74
2023/11/22 08:52:14;;;;;;;5.15;3.25;;;;;;;14.90;55.10;98361.41;4937557;29;20439;-73
2023/11/22 08:54:39;;;;;;;5.72;3.38;;;;;;;14.92;55.12;98371.75;4953289;29;20034;-74
2023/11/22 08:57:06;;;;;;;4.93;3.47;;;;;;;14.93;55.10;98382.13;4953031;29;20039;-74
2023/11/22 08:59:36;;;;;;;4.43;3.30;;;;;;;14.89;55.27;98372.88;4952723;29;20039;-72
2023/11/22 09:02:03;;;;;;;6.15;3.60;;;;;;;14.89;55.19;98369.44;4968195;28;20035;-74
2023/11/22 09:04:31;;;;;;;4.93;3.38;;;;;;;14.93;55.28;98376.88;4952720;29;20046;-73
2023/11/22 09:06:57;;;;;;;7.53;3.78;;;;;;;14.90;55.24;98371.91;4953405;28;20035;-73
2023/11/22 09:09:27;;;;;;;4.80;3.40;;;;;;;14.91;55.43;98368.31;4953242;29;20031;-72
2023/11/22 09:11:53;;;;;;;5.40;3.53;;;;;;;14.91;55.81;98370.09;4968501;28;20035;-73
2023/11/22 09:14:20;;;;;;;6.70;3.80;;;;;;;14.88;55.25;98359.91;4968704;28;20024;-73
2023/11/22 09:16:45;;;;;;;9.13;4.22;;;;;;;14.92;55.37;98366.50;4953028;29;20050;-73
2023/11/22 09:19:11;;;;;;;5.93;3.58;;;;;;;14.93;55.46;98363.72;4952908;29;20027;-74
2023/11/22 09:21:37;;;;;;;4.68;3.60;;;;;;;14.93;55.31;98366.34;4937023;29;20562;-74
2023/11/22 09:24:05;;;;;;;5.45;3.60;;;;;;;14.94;55.46;98375.06;4952773;29;20032;-72
2023/11/22 09:26:31;;;;;;;6.18;3.83;;;;;;;14.94;55.28;98383.78;4954189;29;20181;-71
2023/11/22 09:28:57;;;;;;;5.65;3.50;;;;;;;14.93;55.53;98384.75;4952699;29;20495;-72
2023/11/22 09:31:23;;;;;;;5.55;3.58;;;;;;;14.90;55.39;98371.91;4952894;28;20550;-72
2023/11/22 09:33:48;;;;;;;6.50;3.80;;;;;;;14.95;55.46;98384.59;4952875;29;20110;-73
2023/11/22 09:36:15;;;;;;;6.70;4.00;;;;;;;14.95;55.39;98380.16;4952349;29;20503;-73
2023/11/22 09:38:40;;;;;;;4.72;3.42;;;;;;;14.92;55.59;98363.88;4936441;29;20035;-73
2023/11/22 09:41:08;;;;;;;5.78;3.47;;;;;;;14.94;55.71;98367.16;4952825;29;20031;-73
2023/11/22 09:43:34;;;;;;;5.25;3.60;;;;;;;14.96;55.38;98359.94;4937382;28;20101;-73
2023/11/22 09:46:00;;;;;;;7.03;4.18;;;;;;;14.92;55.67;98353.38;4968551;28;20039;-74
2023/11/22 09:48:27;;;;;;;6.20;3.60;;;;;;;14.98;55.63;98356.19;4952625;29;20110;-74
2023/11/22 09:51:02;;;;;;;6.32;3.50;;;;;;;15.00;55.66;98361.28;4952561;29;20031;-73
2023/11/22 09:53:40;;;;;;;5.70;3.55;;;;;;;14.99;55.54;98370.16;4954074;29;20027;-72
2023/11/22 09:56:06;;;;;;;5.88;4.00;;;;;;;14.99;55.63;98372.78;4952685;28;20046;-72
2023/11/22 09:58:33;;;;;;;4.72;3.30;;;;;;;15.00;55.74;98369.19;4968537;28;20451;-74
2023/11/22 10:01:00;;;;;;;5.95;3.90;;;;;;;14.97;55.51;98359.78;4936513;29;20067;-72
2023/11/22 10:03:26;;;;;;;5.53;4.00;;;;;;;15.02;55.77;98365.44;4952417;29;20476;-73
2023/11/22 10:05:52;;;;;;;5.45;4.03;;;;;;;15.04;55.64;98353.91;4952213;29;20399;-72
2023/11/22 10:08:18;;;;;;;8.60;4.30;;;;;;;15.05;55.84;98355.56;4952426;29;20031;-72
2023/11/22 10:10:46;;;;;;;5.93;4.40;;;;;;;15.05;55.76;98376.59;4936320;29;20131;-73
2023/11/22 10:13:12;;;;;;;5.65;4.18;;;;;;;15.05;55.88;98369.53;4952472;29;20030;-73
2023/11/22 10:15:38;;;;;;;6.50;3.90;;;;;;;15.06;55.89;98368.56;4952442;29;20066;-76
2023/11/22 10:18:04;;;;;;;8.20;4.43;;;;;;;15.03;56.00;98353.09;4970731;28;20030;-72
2023/11/22 10:20:37;;;;;;;6.35;4.20;;;;;;;15.07;55.83;98354.47;4955830;28;20053;-72
2023/11/22 10:23:03;;;;;;;5.88;4.07;;;;;;;15.11;55.82;98347.06;4971344;28;20047;-72
2023/11/22 10:25:29;;;;;;;6.55;4.07;;;;;;;15.13;55.77;98345.94;4955511;29;20554;-72
2023/11/22 10:27:55;;;;;;;7.05;4.75;;;;;;;15.20;55.61;98349.59;4955517;29;20422;-73
2023/11/22 10:30:20;;;;;;;7.57;3.90;;;;;;;15.23;55.79;98345.84;4939465;29;20126;-72
2023/11/22 10:32:46;;;;;;;7.15;4.43;;;;;;;15.25;55.73;98354.38;4955506;29;20039;-72
2023/11/22 10:35:14;;;;;;;6.10;4.18;;;;;;;15.26;56.03;98356.03;4955288;29;20035;-74
2023/11/22 10:37:39;;;;;;;;;;;;;;;15.28;55.93;98350.63;4957062;29;20035;-73
2023/11/22 10:40:06;;;;;;;6.05;4.05;;;;;;;15.30;56.16;98349.47;4955291;28;19917;-73
2023/11/22 10:42:33;;;;;;;5.05;4.43;;;;;;;15.30;55.95;98341.59;4955695;29;20031;-75
2023/11/22 10:44:58;;;;;;;6.28;4.07;;;;;;;15.45;55.83;98348.88;4955365;29;20031;-73
2023/11/22 10:47:24;;;;;;;6.57;3.95;;;;;;;15.52;55.78;98347.28;4955323;29;20035;-76
2023/11/22 10:49:50;;;;;;;7.18;4.00;;;;;;;15.59;55.84;98343.00;4955137;29;20582;-73
2023/11/22 10:52:17;;;;;;;5.60;3.78;;;;;;;15.68;55.67;98339.44;4954827;29;20028;-75
2023/11/22 10:54:45;;;;;;;5.82;4.10;;;;;;;15.76;55.48;98343.91;4939102;29;20562;-72
2023/11/22 10:57:11;;;;;;;7.00;4.28;;;;;;;15.84;55.48;98345.78;4939101;29;20031;-73
2023/11/22 10:59:38;;;;;;;5.93;4.68;;;;;;;15.91;55.18;98341.53;4955012;29;20175;-73
2023/11/22 11:02:03;;;;;;;6.68;4.13;;;;;;;15.96;55.29;98355.03;4939048;29;20066;-73
2023/11/22 11:04:40;;;;;;;5.97;4.40;;;;;;;16.01;55.18;98359.81;4970852;28;20035;-73
2023/11/22 11:07:05;;;;;;;5.80;4.03;;;;;;;16.04;55.29;98352.41;4954920;29;20034;-73
2023/11/22 11:09:32;;;;;;;6.50;4.43;;;;;;;16.03;55.01;98349.94;4954967;29;20031;-73
2023/11/22 11:11:58;;;;;;;7.55;4.20;;;;;;;16.16;54.92;98349.47;4954685;29;20049;-75
2023/11/22 11:14:24;;;;;;;6.00;4.20;;;;;;;16.27;54.93;98360.50;4938698;29;20031;-74
2023/11/22 11:16:53;;;;;;;7.05;4.07;;;;;;;16.33;54.75;98363.47;4938717;29;20063;-73
2023/11/22 11:19:20;;;;;;;6.32;3.85;;;;;;;16.41;54.51;98355.56;4955847;29;20039;-73
2023/11/22 11:21:47;;;;;;;5.75;4.22;;;;;;;16.48;54.34;98353.94;4954366;29;20063;-74
2023/11/22 11:24:14;;;;;;;6.82;4.40;;;;;;;16.60;54.45;98357.91;4970561;28;20039;-73
2023/11/22 11:26:39;;;;;;;6.50;4.57;;;;;;;16.61;54.33;98358.72;4954581;29;20035;-72
2023/11/22 11:29:06;;;;;;;5.60;4.70;;;;;;;16.72;54.09;98355.75;4937879;29;20056;-73